sensor_id;sensor_type;location;lat;lon;timestamp;pressure;altitude;pressure_sealevel;temperature;humidity
61697;BME280;47610;52.252;20.922;2023-07-13T00:01:16;99819.82;;;23.01;100.00
61697;BME280;47610;52.252;20.922;2023-07-13T00:06:19;99823.52;;;22.90;100.00
61697;BME280;47610;52.252;20.922;2023-07-13T00:11:23;99828.37;;;22.78;100.00
61697;BME280;47610;52.252;20.922;2023-07-13T00:16:26;99812.95;;;22.65;100.00
61697;BME280;47610;52.252;20.922;2023-07-13T00:21:29;99810.01;;;22.50;100.00
61697;BME280;47610;52.252;20.922;2023-07-13T00:26:32;99804.86;;;22.37;100.00
61697;BME280;47610;52.252;20.922;2023-07-13T00:31:36;99811.20;;;22.29;100.00
61697;BME280;47610;52.252;20.922;2023-07-13T00:36:39;99811.97;;;22.21;100.00
61697;BME280;47610;52.252;20.922;2023-07-13T00:41:42;99810.41;;;22.13;100.00
61697;BME280;47610;52.252;20.922;2023-07-13T00:46:45;99811.84;;;22.08;100.00
61697;BME280;47610;52.252;20.922;2023-07-13T00:51:50;99804.86;;;22.04;100.00
61697;BME280;47610;52.252;20.922;2023-07-13T00:56:57;99799.19;;;21.97;100.00
61697;BME280;47610;52.252;20.922;2023-07-13T01:02:01;99800.55;;;21.90;100.00
61697;BME280;47610;52.252;20.922;2023-07-13T01:07:05;99794.30;;;21.83;100.00
61697;BME280;47610;52.252;20.922;2023-07-13T01:12:10;99803.59;;;21.75;100.00
61697;BME280;47610;52.252;20.922;2023-07-13T01:17:13;99807.01;;;21.71;100.00
61697;BME280;47610;52.252;20.922;2023-07-13T01:22:18;99808.66;;;21.66;100.00
61697;BME280;47610;52.252;20.922;2023-07-13T01:27:25;99808.09;;;21.63;100.00
61697;BME280;47610;52.252;20.922;2023-07-13T01:32:28;99805.44;;;21.59;100.00
61697;BME280;47610;52.252;20.922;2023-07-13T01:37:31;99816.86;;;21.55;100.00
61697;BME280;47610;52.252;20.922;2023-07-13T01:42:36;99833.12;;;21.52;100.00
61697;BME280;47610;52.252;20.922;2023-07-13T01:47:39;99832.67;;;21.47;100.00
61697;BME280;47610;52.252;20.922;2023-07-13T01:52:42;99827.21;;;21.46;100.00
61697;BME280;47610;52.252;20.922;2023-07-13T01:57:45;99833.83;;;21.44;100.00
61697;BME280;47610;52.252;20.922;2023-07-13T02:02:49;99837.15;;;21.40;100.00
61697;BME280;47610;52.252;20.922;2023-07-13T02:07:52;99831.29;;;21.39;100.00
61697;BME280;47610;52.252;20.922;2023-07-13T02:12:55;99837.92;;;21.39;100.00
61697;BME280;47610;52.252;20.922;2023-07-13T02:17:58;99846.30;;;21.38;100.00
61697;BME280;47610;52.252;20.922;2023-07-13T02:23:01;99846.73;;;21.37;100.00
61697;BME280;47610;52.252;20.922;2023-07-13T02:28:04;99838.54;;;21.36;100.00
61697;BME280;47610;52.252;20.922;2023-07-13T02:33:07;99846.49;;;21.31;100.00
61697;BME280;47610;52.252;20.922;2023-07-13T02:38:11;99851.00;;;21.23;100.00
61697;BME280;47610;52.252;20.922;2023-07-13T02:43:14;99852.72;;;21.18;100.00
61697;BME280;47610;52.252;20.922;2023-07-13T02:48:17;99845.82;;;21.17;100.00
61697;BME280;47610;52.252;20.922;2023-07-13T02:53:20;99844.54;;;21.17;100.00
61697;BME280;47610;52.252;20.922;2023-07-13T02:58:23;99840.23;;;21.15;100.00
61697;BME280;47610;52.252;20.922;2023-07-13T03:03:27;99839.61;;;21.12;100.00
61697;BME280;47610;52.252;20.922;2023-07-13T03:08:30;99837.83;;;21.12;100.00
61697;BME280;47610;52.252;20.922;2023-07-13T03:13:34;99837.41;;;21.11;100.00
61697;BME280;47610;52.252;20.922;2023-07-13T03:18:38;99838.36;;;21.13;100.00
61697;BME280;47610;52.252;20.922;2023-07-13T03:23:41;99839.19;;;21.15;100.00
61697;BME280;47610;52.252;20.922;2023-07-13T03:28:44;99841.98;;;21.18;100.00
61697;BME280;47610;52.252;20.922;2023-07-13T03:33:47;99830.67;;;21.44;100.00
61697;BME280;47610;52.252;20.922;2023-07-13T03:38:52;99825.48;;;22.13;100.00
61697;BME280;47610;52.252;20.922;2023-07-13T03:43:56;99824.72;;;23.17;100.00
61697;BME280;47610;52.252;20.922;2023-07-13T03:48:59;99823.96;;;25.42;100.00
61697;BME280;47610;52.252;20.922;2023-07-13T03:54:02;99831.21;;;26.98;100.00
61697;BME280;47610;52.252;20.922;2023-07-13T03:59:06;99829.58;;;28.99;100.00
61697;BME280;47610;52.252;20.922;2023-07-13T04:04:09;99837.88;;;31.31;100.00
61697;BME280;47610;52.252;20.922;2023-07-13T04:09:12;99846.52;;;33.54;99.49
61697;BME280;47610;52.252;20.922;2023-07-13T04:14:15;99847.70;;;35.51;88.05
61697;BME280;47610;52.252;20.922;2023-07-13T04:19:18;99861.77;;;37.14;74.29
61697;BME280;47610;52.252;20.922;2023-07-13T04:24:21;99877.27;;;39.01;65.08
61697;BME280;47610;52.252;20.922;2023-07-13T04:29:24;99888.60;;;40.69;56.33
61697;BME280;47610;52.252;20.922;2023-07-13T04:34:27;99898.25;;;39.15;52.10
61697;BME280;47610;52.252;20.922;2023-07-13T04:39:30;99888.52;;;36.47;55.33
61697;BME280;47610;52.252;20.922;2023-07-13T04:44:33;99890.73;;;34.23;62.19
61697;BME280;47610;52.252;20.922;2023-07-13T04:49:37;99889.13;;;32.48;69.04
61697;BME280;47610;52.252;20.922;2023-07-13T04:54:40;99885.56;;;31.01;76.44
61697;BME280;47610;52.252;20.922;2023-07-13T04:59:43;99879.11;;;29.80;84.22
61697;BME280;47610;52.252;20.922;2023-07-13T05:04:47;99877.92;;;28.75;92.22
61697;BME280;47610;52.252;20.922;2023-07-13T05:09:50;99888.09;;;27.94;99.01
61697;BME280;47610;52.252;20.922;2023-07-13T05:14:53;99889.74;;;27.26;100.00
61697;BME280;47610;52.252;20.922;2023-07-13T05:19:56;99898.05;;;26.57;100.00
61697;BME280;47610;52.252;20.922;2023-07-13T05:24:59;99902.55;;;25.92;100.00
61697;BME280;47610;52.252;20.922;2023-07-13T05:30:03;99919.62;;;25.64;100.00
61697;BME280;47610;52.252;20.922;2023-07-13T05:35:08;99924.70;;;25.38;100.00
61697;BME280;47610;52.252;20.922;2023-07-13T05:40:11;99933.52;;;25.34;100.00
61697;BME280;47610;52.252;20.922;2023-07-13T05:45:15;99937.15;;;25.36;100.00
61697;BME280;47610;52.252;20.922;2023-07-13T05:50:17;99945.52;;;25.28;100.00
61697;BME280;47610;52.252;20.922;2023-07-13T05:55:20;99942.46;;;25.21;100.00
61697;BME280;47610;52.252;20.922;2023-07-13T06:00:23;99931.63;;;25.06;100.00
61697;BME280;47610;52.252;20.922;2023-07-13T06:05:27;99917.05;;;24.81;100.00
61697;BME280;47610;52.252;20.922;2023-07-13T06:10:31;99917.03;;;24.55;100.00
61697;BME280;47610;52.252;20.922;2023-07-13T06:15:34;99921.70;;;24.40;100.00
61697;BME280;47610;52.252;20.922;2023-07-13T06:20:38;99923.86;;;24.39;100.00
61697;BME280;47610;52.252;20.922;2023-07-13T06:25:41;99916.77;;;24.39;100.00
61697;BME280;47610;52.252;20.922;2023-07-13T06:30:44;99912.48;;;24.91;100.00
61697;BME280;47610;52.252;20.922;2023-07-13T06:35:47;99917.08;;;25.25;100.00
61697;BME280;47610;52.252;20.922;2023-07-13T06:40:51;99923.64;;;25.38;100.00
61697;BME280;47610;52.252;20.922;2023-07-13T06:45:56;99920.33;;;25.60;100.00
61697;BME280;47610;52.252;20.922;2023-07-13T06:51:01;99910.66;;;25.63;100.00
61697;BME280;47610;52.252;20.922;2023-07-13T06:56:07;99910.52;;;25.55;100.00
61697;BME280;47610;52.252;20.922;2023-07-13T07:01:11;99900.65;;;25.50;100.00
61697;BME280;47610;52.252;20.922;2023-07-13T07:06:16;99892.89;;;25.56;100.00
61697;BME280;47610;52.252;20.922;2023-07-13T07:11:21;99893.98;;;25.62;100.00
61697;BME280;47610;52.252;20.922;2023-07-13T07:16:25;99899.52;;;25.68;100.00
61697;BME280;47610;52.252;20.922;2023-07-13T07:21:28;99894.56;;;25.73;100.00
61697;BME280;47610;52.252;20.922;2023-07-13T07:26:32;99897.80;;;25.84;100.00
61697;BME280;47610;52.252;20.922;2023-07-13T07:31:34;99896.55;;;25.87;99.86
61697;BME280;47610;52.252;20.922;2023-07-13T07:36:37;99901.08;;;25.88;98.46
61697;BME280;47610;52.252;20.922;2023-07-13T07:41:41;99899.66;;;25.93;98.33
61697;BME280;47610;52.252;20.922;2023-07-13T07:46:46;99902.20;;;26.00;97.79
61697;BME280;47610;52.252;20.922;2023-07-13T07:51:50;99905.45;;;26.03;99.16
61697;BME280;47610;52.252;20.922;2023-07-13T07:56:53;99905.69;;;26.13;98.46
61697;BME280;47610;52.252;20.922;2023-07-13T08:01:57;99907.27;;;26.20;95.69
61697;BME280;47610;52.252;20.922;2023-07-13T08:07:01;99905.92;;;26.25;94.63
61697;BME280;47610;52.252;20.922;2023-07-13T08:12:07;99909.68;;;26.33;93.90
61697;BME280;47610;52.252;20.922;2023-07-13T08:17:10;99911.14;;;26.35;90.75
61697;BME280;47610;52.252;20.922;2023-07-13T08:22:13;99913.83;;;26.40;90.40
61697;BME280;47610;52.252;20.922;2023-07-13T08:27:16;99909.13;;;26.49;87.64
61697;BME280;47610;52.252;20.922;2023-07-13T08:32:20;99909.56;;;26.68;84.30
61697;BME280;47610;52.252;20.922;2023-07-13T08:37:23;99914.44;;;27.02;81.29
61697;BME280;47610;52.252;20.922;2023-07-13T08:42:42;99916.02;;;27.43;82.12
61697;BME280;47610;52.252;20.922;2023-07-13T08:47:50;99920.58;;;27.86;81.33
61697;BME280;47610;52.252;20.922;2023-07-13T08:52:56;99931.08;;;28.55;80.41
61697;BME280;47610;52.252;20.922;2023-07-13T08:58:05;99935.45;;;29.20;77.96
61697;BME280;47610;52.252;20.922;2023-07-13T09:03:18;99942.10;;;29.34;75.51
61697;BME280;47610;52.252;20.922;2023-07-13T09:08:38;99945.31;;;29.48;74.55
61697;BME280;47610;52.252;20.922;2023-07-13T09:13:48;99944.20;;;29.91;71.16
61697;BME280;47610;52.252;20.922;2023-07-13T09:18:59;99935.80;;;30.25;68.58
61697;BME280;47610;52.252;20.922;2023-07-13T09:24:26;99930.48;;;30.20;67.98
61697;BME280;47610;52.252;20.922;2023-07-13T09:29:33;99927.96;;;30.04;68.08
61697;BME280;47610;52.252;20.922;2023-07-13T09:34:38;99930.44;;;29.28;70.91
61697;BME280;47610;52.252;20.922;2023-07-13T09:39:43;99929.02;;;28.31;76.60
61697;BME280;47610;52.252;20.922;2023-07-13T09:44:54;99930.63;;;27.45;81.51
61697;BME280;47610;52.252;20.922;2023-07-13T09:49:59;99917.96;;;26.88;84.98
61697;BME280;47610;52.252;20.922;2023-07-13T09:55:02;99906.64;;;27.39;82.88
61697;BME280;47610;52.252;20.922;2023-07-13T10:00:18;99906.51;;;27.70;79.70
61697;BME280;47610;52.252;20.922;2023-07-13T10:05:23;99902.55;;;27.68;81.03
61697;BME280;47610;52.252;20.922;2023-07-13T10:10:26;99892.58;;;27.31;79.75
61697;BME280;47610;52.252;20.922;2023-07-13T10:15:28;99881.87;;;26.64;82.21
61697;BME280;47610;52.252;20.922;2023-07-13T10:20:31;99890.27;;;26.36;85.27
61697;BME280;47610;52.252;20.922;2023-07-13T10:25:39;99894.70;;;25.97;88.42
61697;BME280;47610;52.252;20.922;2023-07-13T10:30:47;99902.06;;;25.65;97.22
61697;BME280;47610;52.252;20.922;2023-07-13T10:35:57;99910.73;;;25.21;100.00
61697;BME280;47610;52.252;20.922;2023-07-13T10:41:05;99940.63;;;24.64;100.00
61697;BME280;47610;52.252;20.922;2023-07-13T10:46:13;99957.98;;;24.11;100.00
61697;BME280;47610;52.252;20.922;2023-07-13T10:51:19;99980.67;;;23.71;100.00
61697;BME280;47610;52.252;20.922;2023-07-13T10:56:28;99974.24;;;23.40;100.00
61697;BME280;47610;52.252;20.922;2023-07-13T11:01:46;99967.38;;;23.05;100.00
61697;BME280;47610;52.252;20.922;2023-07-13T11:06:56;99964.14;;;22.82;100.00
61697;BME280;47610;52.252;20.922;2023-07-13T11:12:00;99975.22;;;22.60;100.00
61697;BME280;47610;52.252;20.922;2023-07-13T11:17:32;99987.33;;;22.53;100.00
61697;BME280;47610;52.252;20.922;2023-07-13T11:22:45;99989.20;;;22.40;100.00
61697;BME280;47610;52.252;20.922;2023-07-13T11:28:03;99988.09;;;22.27;100.00
61697;BME280;47610;52.252;20.922;2023-07-13T11:33:15;99986.37;;;21.93;100.00
61697;BME280;47610;52.252;20.922;2023-07-13T11:38:21;100011.61;;;21.78;100.00
61697;BME280;47610;52.252;20.922;2023-07-13T11:43:25;100022.89;;;21.78;100.00
61697;BME280;47610;52.252;20.922;2023-07-13T11:48:29;100034.89;;;21.63;100.00
61697;BME280;47610;52.252;20.922;2023-07-13T11:53:39;100025.35;;;21.51;100.00
61697;BME280;47610;52.252;20.922;2023-07-13T11:58:47;100025.81;;;21.39;100.00
61697;BME280;47610;52.252;20.922;2023-07-13T12:03:51;100031.70;;;21.38;100.00
61697;BME280;47610;52.252;20.922;2023-07-13T12:08:59;100030.38;;;21.41;100.00
61697;BME280;47610;52.252;20.922;2023-07-13T12:14:02;100013.25;;;21.68;100.00
61697;BME280;47610;52.252;20.922;2023-07-13T12:19:16;100005.77;;;22.04;100.00
61697;BME280;47610;52.252;20.922;2023-07-13T12:24:23;100004.03;;;22.05;100.00
61697;BME280;47610;52.252;20.922;2023-07-13T12:29:26;99996.26;;;22.08;100.00
61697;BME280;47610;52.252;20.922;2023-07-13T12:34:31;99992.45;;;21.81;100.00
61697;BME280;47610;52.252;20.922;2023-07-13T12:39:38;99995.64;;;21.77;100.00
61697;BME280;47610;52.252;20.922;2023-07-13T12:44:42;99992.13;;;21.83;100.00
61697;BME280;47610;52.252;20.922;2023-07-13T12:49:53;99995.29;;;21.92;100.00
61697;BME280;47610;52.252;20.922;2023-07-13T12:54:58;99987.92;;;22.01;100.00
61697;BME280;47610;52.252;20.922;2023-07-13T13:00:06;99983.46;;;22.05;100.00
61697;BME280;47610;52.252;20.922;2023-07-13T13:05:14;99988.22;;;22.19;100.00
61697;BME280;47610;52.252;20.922;2023-07-13T13:10:17;99987.70;;;22.31;100.00
61697;BME280;47610;52.252;20.922;2023-07-13T13:15:21;99990.19;;;22.45;100.00
61697;BME280;47610;52.252;20.922;2023-07-13T13:20:23;99994.02;;;22.37;100.00
61697;BME280;47610;52.252;20.922;2023-07-13T13:25:27;99998.13;;;22.42;100.00
61697;BME280;47610;52.252;20.922;2023-07-13T13:30:30;100005.00;;;22.69;100.00
61697;BME280;47610;52.252;20.922;2023-07-13T13:35:34;100013.48;;;22.98;100.00
61697;BME280;47610;52.252;20.922;2023-07-13T13:40:37;100016.21;;;23.36;100.00
61697;BME280;47610;52.252;20.922;2023-07-13T13:45:41;100016.22;;;23.53;100.00
61697;BME280;47610;52.252;20.922;2023-07-13T13:50:44;100017.58;;;23.36;100.00
61697;BME280;47610;52.252;20.922;2023-07-13T13:55:47;100023.50;;;23.15;100.00
61697;BME280;47610;52.252;20.922;2023-07-13T14:00:51;100022.95;;;23.04;100.00
61697;BME280;47610;52.252;20.922;2023-07-13T14:05:55;100029.66;;;22.89;100.00
61697;BME280;47610;52.252;20.922;2023-07-13T14:11:00;100036.21;;;22.77;100.00
61697;BME280;47610;52.252;20.922;2023-07-13T14:16:08;100041.80;;;22.73;100.00
61697;BME280;47610;52.252;20.922;2023-07-13T14:21:14;100026.83;;;22.89;100.00
61697;BME280;47610;52.252;20.922;2023-07-13T14:26:19;100023.95;;;23.21;100.00
61697;BME280;47610;52.252;20.922;2023-07-13T14:31:25;100024.66;;;23.21;100.00
61697;BME280;47610;52.252;20.922;2023-07-13T14:36:32;100025.83;;;23.19;100.00
61697;BME280;47610;52.252;20.922;2023-07-13T14:41:37;100026.02;;;23.12;100.00
61697;BME280;47610;52.252;20.922;2023-07-13T14:46:41;100022.73;;;23.13;100.00
61697;BME280;47610;52.252;20.922;2023-07-13T14:51:45;100015.51;;;23.09;100.00
61697;BME280;47610;52.252;20.922;2023-07-13T14:56:49;100022.48;;;23.05;100.00
61697;BME280;47610;52.252;20.922;2023-07-13T15:01:52;100030.08;;;22.87;100.00
61697;BME280;47610;52.252;20.922;2023-07-13T15:06:57;100041.75;;;22.85;100.00
61697;BME280;47610;52.252;20.922;2023-07-13T15:12:00;100047.66;;;22.88;100.00
61697;BME280;47610;52.252;20.922;2023-07-13T15:17:05;100053.03;;;22.88;100.00
61697;BME280;47610;52.252;20.922;2023-07-13T15:22:11;100052.87;;;22.84;100.00
61697;BME280;47610;52.252;20.922;2023-07-13T15:27:15;100060.68;;;22.86;100.00
61697;BME280;47610;52.252;20.922;2023-07-13T15:32:18;100055.89;;;22.90;100.00
61697;BME280;47610;52.252;20.922;2023-07-13T15:37:21;100056.96;;;22.95;100.00
61697;BME280;47610;52.252;20.922;2023-07-13T15:42:24;100052.09;;;22.93;100.00
61697;BME280;47610;52.252;20.922;2023-07-13T15:47:27;100053.84;;;22.88;100.00
61697;BME280;47610;52.252;20.922;2023-07-13T15:52:31;100056.02;;;22.74;100.00
61697;BME280;47610;52.252;20.922;2023-07-13T15:57:35;100055.63;;;22.64;100.00
61697;BME280;47610;52.252;20.922;2023-07-13T16:02:38;100064.78;;;22.52;100.00
61697;BME280;47610;52.252;20.922;2023-07-13T16:07:41;100058.95;;;22.39;100.00
61697;BME280;47610;52.252;20.922;2023-07-13T16:12:46;100059.79;;;22.27;100.00
61697;BME280;47610;52.252;20.922;2023-07-13T16:17:50;100065.66;;;22.19;100.00
61697;BME280;47610;52.252;20.922;2023-07-13T16:22:55;100068.07;;;22.19;100.00
61697;BME280;47610;52.252;20.922;2023-07-13T16:27:58;100069.57;;;22.21;100.00
61697;BME280;47610;52.252;20.922;2023-07-13T16:33:02;100074.05;;;22.21;100.00
61697;BME280;47610;52.252;20.922;2023-07-13T16:38:15;100072.83;;;22.30;100.00
61697;BME280;47610;52.252;20.922;2023-07-13T16:43:19;100069.75;;;22.47;100.00
61697;BME280;47610;52.252;20.922;2023-07-13T16:48:24;100073.27;;;22.64;100.00
61697;BME280;47610;52.252;20.922;2023-07-13T16:53:30;100071.86;;;22.73;100.00
61697;BME280;47610;52.252;20.922;2023-07-13T16:58:32;100074.27;;;22.80;100.00
61697;BME280;47610;52.252;20.922;2023-07-13T17:03:36;100076.64;;;22.85;100.00
61697;BME280;47610;52.252;20.922;2023-07-13T17:08:39;100082.90;;;22.83;100.00
61697;BME280;47610;52.252;20.922;2023-07-13T17:13:42;100083.00;;;22.73;100.00
61697;BME280;47610;52.252;20.922;2023-07-13T17:18:45;100087.10;;;22.73;100.00
61697;BME280;47610;52.252;20.922;2023-07-13T17:23:48;100094.91;;;22.86;100.00
61697;BME280;47610;52.252;20.922;2023-07-13T17:28:51;100100.54;;;22.86;100.00
61697;BME280;47610;52.252;20.922;2023-07-13T17:33:54;100100.11;;;22.81;100.00
61697;BME280;47610;52.252;20.922;2023-07-13T17:38:57;100097.48;;;22.75;100.00
61697;BME280;47610;52.252;20.922;2023-07-13T17:44:02;100093.52;;;22.74;100.00
61697;BME280;47610;52.252;20.922;2023-07-13T17:49:07;100090.64;;;22.67;100.00
61697;BME280;47610;52.252;20.922;2023-07-13T17:54:15;100086.88;;;22.60;100.00
61697;BME280;47610;52.252;20.922;2023-07-13T17:59:18;100084.95;;;22.60;100.00
61697;BME280;47610;52.252;20.922;2023-07-13T18:04:21;100079.88;;;22.66;100.00
61697;BME280;47610;52.252;20.922;2023-07-13T18:09:27;100072.98;;;22.66;100.00
61697;BME280;47610;52.252;20.922;2023-07-13T18:14:30;100076.04;;;22.59;100.00
61697;BME280;47610;52.252;20.922;2023-07-13T18:19:38;100075.02;;;22.53;100.00
61697;BME280;47610;52.252;20.922;2023-07-13T18:24:42;100065.66;;;22.51;100.00
61697;BME280;47610;52.252;20.922;2023-07-13T18:29:45;100070.48;;;22.52;100.00
61697;BME280;47610;52.252;20.922;2023-07-13T18:34:49;100080.62;;;22.46;100.00
61697;BME280;47610;52.252;20.922;2023-07-13T18:39:53;100078.70;;;22.34;100.00
61697;BME280;47610;52.252;20.922;2023-07-13T18:44:56;100085.90;;;22.33;100.00
61697;BME280;47610;52.252;20.922;2023-07-13T18:49:59;100089.02;;;22.27;100.00
61697;BME280;47610;52.252;20.922;2023-07-13T18:55:05;100094.32;;;22.19;100.00
61697;BME280;47610;52.252;20.922;2023-07-13T19:00:15;100099.31;;;22.11;100.00
61697;BME280;47610;52.252;20.922;2023-07-13T19:05:21;100097.25;;;22.17;100.00
61697;BME280;47610;52.252;20.922;2023-07-13T19:10:25;100100.83;;;22.19;100.00
61697;BME280;47610;52.252;20.922;2023-07-13T19:15:31;100099.39;;;22.13;100.00
61697;BME280;47610;52.252;20.922;2023-07-13T19:20:35;100098.23;;;22.12;100.00
61697;BME280;47610;52.252;20.922;2023-07-13T19:25:38;100105.36;;;22.09;100.00
61697;BME280;47610;52.252;20.922;2023-07-13T19:30:42;100113.23;;;22.13;100.00
61697;BME280;47610;52.252;20.922;2023-07-13T19:35:45;100105.35;;;22.09;100.00
61697;BME280;47610;52.252;20.922;2023-07-13T19:40:48;100107.71;;;22.14;100.00
61697;BME280;47610;52.252;20.922;2023-07-13T19:45:51;100115.33;;;22.14;100.00
61697;BME280;47610;52.252;20.922;2023-07-13T19:50:54;100123.48;;;22.04;100.00
61697;BME280;47610;52.252;20.922;2023-07-13T19:55:57;100125.30;;;21.88;100.00
61697;BME280;47610;52.252;20.922;2023-07-13T20:01:00;100131.52;;;21.82;100.00
61697;BME280;47610;52.252;20.922;2023-07-13T20:06:05;100133.79;;;21.69;100.00
61697;BME280;47610;52.252;20.922;2023-07-13T20:11:11;100146.54;;;21.63;100.00
61697;BME280;47610;52.252;20.922;2023-07-13T20:16:15;100144.94;;;21.66;100.00
61697;BME280;47610;52.252;20.922;2023-07-13T20:21:18;100151.00;;;21.74;100.00
61697;BME280;47610;52.252;20.922;2023-07-13T20:26:21;100149.77;;;21.82;100.00
61697;BME280;47610;52.252;20.922;2023-07-13T20:31:24;100153.47;;;21.80;100.00
61697;BME280;47610;52.252;20.922;2023-07-13T20:36:27;100162.31;;;21.66;100.00
61697;BME280;47610;52.252;20.922;2023-07-13T20:41:30;100160.47;;;21.64;100.00
61697;BME280;47610;52.252;20.922;2023-07-13T20:46:35;100168.41;;;21.51;100.00
61697;BME280;47610;52.252;20.922;2023-07-13T20:51:39;100169.79;;;21.36;100.00
61697;BME280;47610;52.252;20.922;2023-07-13T20:56:42;100173.70;;;21.23;100.00
61697;BME280;47610;52.252;20.922;2023-07-13T21:01:46;100173.63;;;21.18;100.00
61697;BME280;47610;52.252;20.922;2023-07-13T21:06:49;100173.92;;;21.14;100.00
61697;BME280;47610;52.252;20.922;2023-07-13T21:11:52;100175.52;;;21.17;100.00
61697;BME280;47610;52.252;20.922;2023-07-13T21:16:56;100179.37;;;21.20;100.00
61697;BME280;47610;52.252;20.922;2023-07-13T21:22:00;100178.29;;;21.24;100.00
61697;BME280;47610;52.252;20.922;2023-07-13T21:27:02;100183.02;;;21.27;100.00
61697;BME280;47610;52.252;20.922;2023-07-13T21:32:08;100184.63;;;21.30;100.00
61697;BME280;47610;52.252;20.922;2023-07-13T21:37:18;100197.51;;;21.30;100.00
61697;BME280;47610;52.252;20.922;2023-07-13T21:42:21;100199.66;;;21.37;100.00
61697;BME280;47610;52.252;20.922;2023-07-13T21:47:24;100192.63;;;21.39;100.00
61697;BME280;47610;52.252;20.922;2023-07-13T21:52:27;100197.04;;;21.40;100.00
61697;BME280;47610;52.252;20.922;2023-07-13T21:57:30;100194.98;;;21.41;100.00
61697;BME280;47610;52.252;20.922;2023-07-13T22:02:34;100196.58;;;21.29;100.00
61697;BME280;47610;52.252;20.922;2023-07-13T22:07:37;100187.20;;;21.20;100.00
61697;BME280;47610;52.252;20.922;2023-07-13T22:12:40;100185.90;;;21.22;100.00
61697;BME280;47610;52.252;20.922;2023-07-13T22:17:46;100190.65;;;21.23;100.00
61697;BME280;47610;52.252;20.922;2023-07-13T22:22:49;100189.41;;;21.24;100.00
61697;BME280;47610;52.252;20.922;2023-07-13T22:27:53;100197.22;;;21.26;100.00
61697;BME280;47610;52.252;20.922;2023-07-13T22:32:56;100195.89;;;21.24;100.00
61697;BME280;47610;52.252;20.922;2023-07-13T22:37:59;100192.18;;;21.21;100.00
61697;BME280;47610;52.252;20.922;2023-07-13T22:43:04;100188.42;;;21.18;100.00
61697;BME280;47610;52.252;20.922;2023-07-13T22:48:09;100180.67;;;21.11;100.00
61697;BME280;47610;52.252;20.922;2023-07-13T22:53:22;100177.19;;;21.04;100.00
61697;BME280;47610;52.252;20.922;2023-07-13T22:58:26;100185.83;;;20.99;100.00
61697;BME280;47610;52.252;20.922;2023-07-13T23:03:32;100177.48;;;20.94;100.00
61697;BME280;47610;52.252;20.922;2023-07-13T23:08:36;100176.98;;;20.91;100.00
61697;BME280;47610;52.252;20.922;2023-07-13T23:13:39;100174.02;;;20.85;100.00
61697;BME280;47610;52.252;20.922;2023-07-13T23:18:42;100168.84;;;20.81;100.00
61697;BME280;47610;52.252;20.922;2023-07-13T23:23:46;100168.67;;;20.78;100.00
61697;BME280;47610;52.252;20.922;2023-07-13T23:28:51;100169.85;;;20.73;100.00
61697;BME280;47610;52.252;20.922;2023-07-13T23:33:55;100170.16;;;20.67;100.00
61697;BME280;47610;52.252;20.922;2023-07-13T23:38:58;100178.13;;;20.61;100.00
61697;BME280;47610;52.252;20.922;2023-07-13T23:44:01;100184.60;;;20.55;100.00
61697;BME280;47610;52.252;20.922;2023-07-13T23:49:13;100198.69;;;20.50;100.00
61697;BME280;47610;52.252;20.922;2023-07-13T23:54:18;100195.48;;;20.44;100.00
61697;BME280;47610;52.252;20.922;2023-07-13T23:59:21;100196.66;;;20.41;100.00
